Time;durP1;ratioP1;P1;durP2;ratioP2;P2;SDS_P1;SDS_P2;PMS_P1;PMS_P2;Temp;Humidity;BMP_temperature;BMP_pressure;BME280_temperature;BME280_humidity;BME280_pressure;Samples;Min_cycle;Max_cycle;Signal;HPM_P1;HPM_P2
2023/02/15 00:00:35;;;;;;;72.25;34.30;;;-0.10;49.10;;;;;;7363128;19;20478;-67
2023/02/15 00:03:05;;;;;;;69.95;33.38;;;-0.20;48.80;;;;;;7363831;19;20014;-67
2023/02/15 00:05:35;;;;;;;72.97;32.63;;;-0.20;49.20;;;;;;7366869;19;20022;-68
2023/02/15 00:08:07;;;;;;;60.70;30.52;;;-0.10;49.80;;;;;;7385434;19;20073;-67
2023/02/15 00:10:37;;;;;;;67.78;32.03;;;-0.20;49.50;;;;;;7364490;19;20010;-67
2023/02/15 00:13:07;;;;;;;66.75;31.90;;;-0.20;49.80;;;;;;7363196;19;20021;-68
2023/02/15 00:15:37;;;;;;;65.25;30.38;;;-0.30;49.50;;;;;;7363375;19;20014;-68
2023/02/15 00:18:07;;;;;;;65.38;31.98;;;-0.30;49.90;;;;;;7363992;19;20006;-67
2023/02/15 00:20:37;;;;;;;70.97;33.55;;;-0.30;49.90;;;;;;7361186;19;20025;-67
2023/02/15 00:23:09;;;;;;;67.78;34.17;;;-0.30;50.30;;;;;;7384255;19;20017;-67
2023/02/15 00:25:39;;;;;;;68.43;32.95;;;-0.30;50.60;;;;;;7366766;19;20596;-68
2023/02/15 00:28:09;;;;;;;70.18;33.13;;;-0.30;50.40;;;;;;7363832;19;20010;-68
2023/02/15 00:30:39;;;;;;;75.85;35.45;;;-0.30;50.60;;;;;;7361385;19;20018;-68
2023/02/15 00:33:08;;;;;;;96.25;39.40;;;-0.30;50.90;;;;;;7364674;19;20538;-68
2023/02/15 00:35:39;;;;;;;100.20;39.08;;;-0.30;51.20;;;;;;7364175;19;20026;-68
2023/02/15 00:38:12;;;;;;;76.07;36.13;;;-0.30;51.20;;;;;;7384982;19;20021;-67
2023/02/15 00:40:42;;;;;;;89.05;35.95;;;-0.30;51.20;;;;;;7359828;19;20029;-68
2023/02/15 00:43:12;;;;;;;126.07;39.47;;;-0.40;51.10;;;;;;7362075;19;20021;-67
2023/02/15 00:45:41;;;;;;;116.85;40.67;;;-0.50;51.00;;;;;;7363618;19;20022;-68
2023/02/15 00:48:11;;;;;;;102.47;37.83;;;-0.60;50.80;;;;;;7363379;19;20015;-68
2023/02/15 00:50:41;;;;;;;116.97;39.55;;;-0.70;50.80;;;;;;7360882;19;20004;-68
2023/02/15 00:53:13;;;;;;;120.90;39.53;;;-0.70;51.20;;;;;;7384210;19;20014;-68
2023/02/15 00:55:43;;;;;;;120.47;37.28;;;-0.70;51.30;;;;;;7363776;19;20079;-69
2023/02/15 00:58:14;;;;;;;88.22;35.95;;;-0.70;51.60;;;;;;7362203;19;20498;-68
2023/02/15 01:00:46;;;;;;;131.38;38.25;;;-0.80;51.50;;;;;;7362500;19;20010;-69
2023/02/15 01:03:19;;;;;;;190.55;42.08;;;-0.90;51.80;;;;;;7362705;19;20030;-67
2023/02/15 01:05:50;;;;;;;276.45;49.05;;;-0.80;52.00;;;;;;7364076;19;20354;-68
2023/02/15 01:08:22;;;;;;;321.13;48.75;;;-0.90;52.00;;;;;;7384253;19;20022;-67
2023/02/15 01:10:52;;;;;;;185.57;41.58;;;-0.90;52.20;;;;;;7365799;19;20027;-68
2023/02/15 01:13:22;;;;;;;466.30;61.45;;;-1.00;52.00;;;;;;7361452;19;20082;-67
2023/02/15 01:15:56;;;;;;;331.65;52.20;;;-0.90;52.40;;;;;;7361406;19;20469;-68
2023/02/15 01:18:26;;;;;;;147.30;41.40;;;-1.00;52.40;;;;;;7362326;19;20466;-67
2023/02/15 01:20:57;;;;;;;546.50;67.50;;;-1.10;52.40;;;;;;7361529;19;20011;-68
2023/02/15 01:23:29;;;;;;;198.93;45.53;;;-1.10;53.00;;;;;;7361441;19;20491;-68
2023/02/15 01:26:04;;;;;;;300.58;49.85;;;-1.10;53.10;;;;;;7385337;19;20038;-68
2023/02/15 01:28:34;;;;;;;101.70;40.90;;;-1.10;53.20;;;;;;7360147;19;20510;-67
2023/02/15 01:31:08;;;;;;;244.40;48.05;;;-1.00;53.20;;;;;;7364132;19;20019;-67
2023/02/15 01:33:38;;;;;;;168.10;44.70;;;-1.00;53.20;;;;;;7361382;19;20017;-68
2023/02/15 01:36:09;;;;;;;148.50;42.72;;;-1.10;53.20;;;;;;7363014;19;20015;-68
2023/02/15 01:38:42;;;;;;;78.10;36.58;;;-1.10;53.20;;;;;;7361206;19;20059;-67
2023/02/15 01:41:26;;;;;;;512.05;67.38;;;-1.20;53.10;;;;;;7382508;19;20018;-67
2023/02/15 01:43:58;;;;;;;208.13;48.30;;;-1.20;53.10;;;;;;7359905;19;20082;-67
2023/02/15 01:46:33;;;;;;;314.63;51.13;;;-1.20;53.20;;;;;;7360056;19;20112;-68
2023/02/15 01:49:07;;;;;;;350.23;54.28;;;-1.20;53.30;;;;;;7361175;19;20020;-68
2023/02/15 01:51:40;;;;;;;467.00;63.30;;;-1.30;53.20;;;;;;7360844;19;20489;-68
2023/02/15 01:54:20;;;;;;;155.88;38.88;;;-1.30;53.20;;;;;;7360810;19;20130;-68
2023/02/15 01:56:50;;;;;;;349.67;48.55;;;-1.40;53.00;;;;;;7359656;19;20148;-67
2023/02/15 01:59:24;;;;;;;290.88;48.17;;;-1.50;52.90;;;;;;7381348;19;20018;-68
2023/02/15 02:01:57;;;;;;;227.75;40.67;;;-1.50;53.00;;;;;;7385105;19;20022;-68
2023/02/15 02:04:35;;;;;;;90.65;33.47;;;-1.40;53.20;;;;;;7360129;19;20014;-68
2023/02/15 02:07:06;;;;;;;263.92;44.80;;;-1.40;53.20;;;;;;7359720;19;20505;-67
2023/02/15 02:09:39;;;;;;;214.48;39.75;;;-1.40;53.20;;;;;;7361190;19;20010;-67
2023/02/15 02:12:10;;;;;;;180.90;37.50;;;-1.40;53.50;;;;;;7359062;19;20021;-69
2023/02/15 02:14:40;;;;;;;185.50;38.65;;;-1.40;53.50;;;;;;7360407;19;22405;-68
2023/02/15 02:17:18;;;;;;;173.23;38.42;;;-1.40;53.60;;;;;;7379911;19;20107;-68
2023/02/15 02:20:20;;;;;;;290.13;44.13;;;-1.50;53.50;;;;;;7361582;19;20014;-67
2023/02/15 02:23:29;;;;;;;172.80;36.80;;;-1.50;53.70;;;;;;7359813;19;20031;-67
2023/02/15 02:26:37;;;;;;;166.98;37.20;;;-1.50;53.60;;;;;;7359079;19;20014;-68
2023/02/15 02:29:40;;;;;;;124.20;35.58;;;-1.50;53.70;;;;;;7356916;19;20086;-67
2023/02/15 02:32:37;;;;;;;261.30;47.88;;;-1.60;53.60;;;;;;7359416;19;20017;-68
2023/02/15 02:35:15;;;;;;;151.13;37.55;;;-1.60;53.80;;;;;;7360275;19;20022;-67
2023/02/15 02:37:52;;;;;;;228.65;40.45;;;-1.50;53.70;;;;;;7357027;19;20106;-67
2023/02/15 02:40:28;;;;;;;98.60;34.33;;;-1.50;54.00;;;;;;7363060;19;20010;-67
2023/02/15 02:43:02;;;;;;;144.13;37.97;;;-1.50;54.00;;;;;;7366295;19;20019;-68
2023/02/15 02:45:40;;;;;;;325.50;47.83;;;-1.50;54.20;;;;;;7366918;19;20806;-68
2023/02/15 02:48:14;;;;;;;263.95;42.00;;;-1.60;54.10;;;;;;7366643;19;20014;-68
2023/02/15 02:50:47;;;;;;;330.95;39.85;;;-1.70;54.00;;;;;;7363988;19;20015;-68
2023/02/15 02:53:17;;;;;;;180.30;35.53;;;-1.60;54.00;;;;;;7388337;19;20078;-68
2023/02/15 02:55:52;;;;;;;151.30;34.42;;;-1.50;54.10;;;;;;7368559;19;20017;-68
2023/02/15 02:58:28;;;;;;;186.88;35.75;;;-1.60;54.10;;;;;;7365828;19;20426;-67
2023/02/15 03:01:01;;;;;;;160.30;35.00;;;-1.60;54.70;;;;;;7367396;19;20014;-67
2023/02/15 03:03:35;;;;;;;109.40;32.40;;;-1.60;54.10;;;;;;7365899;19;20070;-67
2023/02/15 03:06:10;;;;;;;;;;;-1.70;53.80;;;;;;7368686;19;20006;-67
2023/02/15 03:08:44;;;;;;;245.40;37.10;;;-1.70;54.00;;;;;;7366127;19;19980;-67
2023/02/15 03:11:14;;;;;;;434.58;46.38;;;-1.80;53.70;;;;;;7387145;19;20018;-67
2023/02/15 03:13:46;;;;;;;139.07;31.70;;;-1.70;53.90;;;;;;7365275;19;20314;-68
2023/02/15 03:16:30;;;;;;;149.90;33.13;;;-1.60;54.10;;;;;;7364029;19;20497;-68
2023/02/15 03:19:03;;;;;;;;;;;-1.70;54.20;;;;;;7366375;19;20823;-66
2023/02/15 03:21:42;;;;;;;98.93;30.17;;;-1.70;54.10;;;;;;7365955;19;20351;-67
2023/02/15 03:24:16;;;;;;;99.45;28.08;;;-1.80;53.80;;;;;;7367733;19;20021;-68
2023/02/15 03:26:50;;;;;;;143.73;32.45;;;-1.70;54.10;;;;;;7368839;19;20090;-68
2023/02/15 03:29:24;;;;;;;105.30;28.98;;;-1.60;54.10;;;;;;7385730;19;20372;-68
2023/02/15 03:31:59;;;;;;;105.60;27.92;;;-1.50;54.20;;;;;;7386150;19;20030;-68
2023/02/15 03:34:29;;;;;;;101.13;29.15;;;-1.70;54.40;;;;;;7364105;19;20090;-68
2023/02/15 03:37:08;;;;;;;71.13;28.08;;;-1.70;54.30;;;;;;7363474;19;20010;-69
2023/02/15 03:39:42;;;;;;;104.07;31.00;;;-1.70;54.20;;;;;;7364140;19;20015;-68
2023/02/15 03:42:16;;;;;;;187.52;34.90;;;-1.70;54.80;;;;;;7364935;19;20010;-68
2023/02/15 03:44:55;;;;;;;74.15;29.00;;;-1.70;54.10;;;;;;7365016;19;20017;-68
2023/02/15 03:47:31;;;;;;;91.00;27.58;;;-1.60;54.10;;;;;;7364411;19;20619;-68
2023/02/15 03:51:33;;;;;;;168.45;33.25;;;-1.60;54.30;;;;;;7386987;19;20021;-68
2023/02/15 03:52:58;;;;;;;139.07;29.00;;;-1.70;54.20;;;;;;7364118;19;20025;-68
2023/02/15 03:55:28;;;;;;;90.22;27.95;;;-1.80;54.30;;;;;;7366216;19;20544;-67
2023/02/15 04:03:38;;;;;;;87.68;25.27;;;-1.80;54.30;;;;;;7363892;19;20014;-68
2023/02/15 04:06:08;;;;;;;125.22;28.00;;;-1.80;54.40;;;;;;7365266;19;20020;-68
2023/02/15 04:11:23;;;;;;;;;;;-1.70;54.30;;;;;;7364276;19;20021;-68
2023/02/15 04:13:56;;;;;;;60.28;24.58;;;-1.70;54.50;;;;;;7385024;19;19923;-68
2023/02/15 04:16:23;;;;;;;88.82;26.90;;;-1.70;54.40;;;;;;7365889;19;20018;-68
2023/02/15 04:27:04;;;;;;;127.38;32.25;;;-1.70;54.40;;;;;;7363380;19;20092;-67
2023/02/15 04:29:34;;;;;;;109.38;28.73;;;-1.70;54.40;;;;;;7365037;19;20021;-68
2023/02/15 04:32:04;;;;;;;277.05;36.60;;;-1.70;54.50;;;;;;7384743;19;20022;-68
2023/02/15 04:34:34;;;;;;;89.18;27.15;;;-1.70;54.10;;;;;;7362440;19;20509;-68
2023/02/15 04:37:04;;;;;;;70.50;24.90;;;-1.60;54.60;;;;;;7362577;19;20475;-68
2023/02/15 04:39:36;;;;;;;103.82;29.10;;;-1.70;54.90;;;;;;7362289;19;20022;-69
2023/02/15 04:42:06;;;;;;;134.82;28.30;;;-1.70;55.50;;;;;;7361900;19;20639;-68
2023/02/15 04:44:36;;;;;;;121.70;28.05;;;-1.70;54.80;;;;;;7362557;19;20010;-68
2023/02/15 04:47:06;;;;;;;101.10;28.95;;;-1.70;54.50;;;;;;7384365;19;20423;-68
2023/02/15 04:49:36;;;;;;;173.32;31.90;;;-1.50;54.70;;;;;;7363609;19;20482;-68
2023/02/15 04:52:06;;;;;;;103.85;27.73;;;-1.50;54.70;;;;;;7362427;19;20018;-68
2023/02/15 04:54:38;;;;;;;248.30;38.67;;;-1.40;55.00;;;;;;7363752;19;20018;-66
2023/02/15 04:57:08;;;;;;;90.45;25.20;;;-1.60;55.40;;;;;;7361662;19;20043;-68
2023/02/15 04:59:38;;;;;;;169.18;30.20;;;-1.70;55.50;;;;;;7364218;19;20018;-67
2023/02/15 05:02:08;;;;;;;228.77;33.80;;;-1.70;55.30;;;;;;7384535;19;20021;-69
2023/02/15 05:04:38;;;;;;;165.68;30.00;;;-1.70;55.10;;;;;;7361789;19;20332;-68
2023/02/15 05:07:08;;;;;;;196.20;31.55;;;-1.70;54.80;;;;;;7362497;19;20050;-67
2023/02/15 05:09:40;;;;;;;221.88;34.22;;;-1.70;55.20;;;;;;7362936;19;20015;-68
2023/02/15 05:12:10;;;;;;;141.73;28.58;;;-1.70;55.10;;;;;;7361836;19;20038;-67
2023/02/15 05:14:40;;;;;;;212.73;33.78;;;-1.90;55.50;;;;;;7363524;19;20060;-67
2023/02/15 05:17:10;;;;;;;143.38;26.67;;;-2.00;54.50;;;;;;7386517;19;20093;-68
2023/02/15 05:19:39;;;;;;;199.98;35.95;;;-1.90;54.80;;;;;;7363117;19;20014;-68
2023/02/15 05:22:09;;;;;;;329.25;36.05;;;-1.80;54.70;;;;;;7361017;19;20081;-68
2023/02/15 05:30:11;;;;;;;296.80;38.40;;;-1.60;54.90;;;;;;7363098;19;19921;-67
2023/02/15 05:32:41;;;;;;;176.93;29.20;;;-1.70;55.00;;;;;;7361001;19;20016;-68
2023/02/15 05:35:16;;;;;;;292.75;37.40;;;-1.70;55.00;;;;;;7382564;19;20011;-68
2023/02/15 05:37:46;;;;;;;306.83;39.80;;;-1.80;54.90;;;;;;7359890;19;20018;-67
2023/02/15 05:40:18;;;;;;;137.75;30.08;;;-1.80;54.80;;;;;;7358990;19;20022;-66
2023/02/15 05:42:48;;;;;;;66.15;23.73;;;-1.90;55.00;;;;;;7360902;19;20340;-67
2023/02/15 05:45:18;;;;;;;62.53;23.92;;;-1.90;55.00;;;;;;7360575;19;20544;-67
2023/02/15 05:47:49;;;;;;;290.23;34.63;;;-1.80;54.80;;;;;;7359921;19;20010;-67
2023/02/15 05:50:19;;;;;;;114.07;25.50;;;-1.90;54.70;;;;;;7380191;19;20585;-68
2023/02/15 05:52:49;;;;;;;86.35;24.20;;;-1.90;54.50;;;;;;7359952;19;20347;-68
2023/02/15 05:55:23;;;;;;;102.28;23.80;;;-1.90;54.70;;;;;;7361949;19;20010;-68
2023/02/15 05:57:53;;;;;;;79.40;24.40;;;-1.80;55.00;;;;;;7359337;19;20497;-68
2023/02/15 06:00:23;;;;;;;121.05;26.08;;;-1.80;55.10;;;;;;7359498;19;20087;-67
2023/02/15 06:02:53;;;;;;;100.57;24.60;;;-1.80;55.20;;;;;;7360097;19;20026;-69
2023/02/15 06:05:23;;;;;;;258.52;32.13;;;-1.90;55.20;;;;;;7359993;19;20018;-69
2023/02/15 06:07:53;;;;;;;241.15;32.78;;;-1.80;55.10;;;;;;7381086;19;20023;-67
2023/02/15 06:10:25;;;;;;;107.15;25.05;;;-1.80;54.90;;;;;;7359529;19;20506;-69
2023/02/15 06:12:55;;;;;;;64.82;23.50;;;-1.70;54.90;;;;;;7358808;19;20888;-67
2023/02/15 06:15:25;;;;;;;76.30;22.92;;;-1.70;55.20;;;;;;7360715;19;20014;-68
2023/02/15 06:17:55;;;;;;;117.07;25.02;;;-1.70;55.30;;;;;;7359277;19;20011;-68
2023/02/15 06:20:24;;;;;;;82.05;24.50;;;-1.70;55.30;;;;;;7357663;19;20074;-68
2023/02/15 06:22:54;;;;;;;83.38;23.52;;;-1.70;55.40;;;;;;7381251;19;20011;-67
2023/02/15 06:25:27;;;;;;;76.22;24.38;;;-1.60;55.20;;;;;;7358921;19;20018;-68
2023/02/15 06:27:56;;;;;;;102.22;24.27;;;-1.60;55.40;;;;;;7361561;19;20025;-68
2023/02/15 06:30:26;;;;;;;82.55;22.88;;;-1.50;55.70;;;;;;7358363;19;20015;-70
2023/02/15 06:32:56;;;;;;;133.70;28.10;;;-1.60;55.70;;;;;;7358741;19;20014;-69
2023/02/15 06:35:26;;;;;;;101.07;25.30;;;-1.70;55.70;;;;;;7357035;19;20014;-67
2023/02/15 06:37:56;;;;;;;76.75;26.08;;;-1.70;55.50;;;;;;7379427;19;20439;-70
2023/02/15 06:40:28;;;;;;;182.68;31.10;;;-1.70;55.50;;;;;;7356173;19;20046;-69
2023/02/15 06:42:59;;;;;;;130.02;29.67;;;-1.70;55.10;;;;;;7357606;19;20473;-68
2023/02/15 06:45:29;;;;;;;124.72;26.05;;;-1.70;55.10;;;;;;7358589;19;20575;-68
2023/02/15 06:47:58;;;;;;;94.75;24.27;;;-1.70;55.40;;;;;;7358393;19;20129;-69
2023/02/15 06:50:28;;;;;;;197.10;32.35;;;-1.70;55.20;;;;;;7356265;19;20750;-68
2023/02/15 06:52:59;;;;;;;168.65;28.70;;;-1.70;55.20;;;;;;7380376;19;20504;-69
2023/02/15 06:55:31;;;;;;;267.25;35.33;;;-1.70;55.30;;;;;;7360690;19;20017;-69
2023/02/15 06:58:01;;;;;;;145.77;29.90;;;-1.70;55.70;;;;;;7358436;19;20078;-68
2023/02/15 07:00:31;;;;;;;102.60;27.77;;;-1.70;55.30;;;;;;7356925;19;20015;-68
2023/02/15 07:03:02;;;;;;;253.18;36.72;;;-1.70;55.60;;;;;;7358221;19;20014;-68
2023/02/15 07:05:36;;;;;;;124.80;30.80;;;-1.70;55.10;;;;;;7357869;19;20094;-68
2023/02/15 07:08:06;;;;;;;429.13;46.63;;;-1.70;55.10;;;;;;7382681;19;20022;-68
2023/02/15 07:10:38;;;;;;;241.25;36.35;;;-1.70;55.10;;;;;;7358304;19;20018;-68
2023/02/15 07:13:06;;;;;;;458.20;47.22;;;-1.70;55.30;;;;;;7357069;19;20014;-69
2023/02/15 07:15:35;;;;;;;130.98;27.75;;;-1.70;55.50;;;;;;7357419;19;20018;-69
2023/02/15 07:18:05;;;;;;;187.93;31.52;;;-1.80;55.80;;;;;;7358159;19;20018;-68
2023/02/15 07:20:35;;;;;;;196.63;30.90;;;-1.70;55.90;;;;;;7355641;19;20022;-70
2023/02/15 07:23:07;;;;;;;204.60;29.25;;;-1.70;56.00;;;;;;7379239;19;20018;-67
2023/02/15 07:25:39;;;;;;;76.70;24.23;;;-1.70;56.00;;;;;;7361692;19;21208;-67
2023/02/15 07:28:09;;;;;;;174.52;29.13;;;-1.80;56.10;;;;;;7364154;19;20387;-68
2023/02/15 07:30:40;;;;;;;308.73;38.38;;;-1.70;55.90;;;;;;7362859;19;20014;-68
2023/02/15 07:35:53;;;;;;;99.82;24.95;;;-1.60;55.60;;;;;;7363636;19;20039;-67
2023/02/15 07:38:24;;;;;;;104.55;25.52;;;-1.40;55.90;;;;;;7364206;19;20018;-68
2023/02/15 07:41:00;;;;;;;111.93;24.67;;;-1.50;56.30;;;;;;7386057;19;20031;-68
2023/02/15 07:43:31;;;;;;;102.68;23.23;;;-1.60;56.40;;;;;;7363868;19;20034;-68
2023/02/15 07:46:02;;;;;;;136.18;28.23;;;-1.60;56.50;;;;;;7364627;19;20082;-67
2023/02/15 07:48:33;;;;;;;89.70;26.17;;;-1.50;56.50;;;;;;7364039;19;20018;-69
2023/02/15 07:51:05;;;;;;;109.07;25.83;;;-1.40;56.60;;;;;;7364247;19;20014;-69
2023/02/15 07:53:35;;;;;;;99.07;24.10;;;-1.30;56.70;;;;;;7363161;19;20467;-68
2023/02/15 07:56:11;;;;;;;115.90;25.55;;;-1.40;56.80;;;;;;7388812;19;20019;-68
2023/02/15 07:58:55;;;;;;;75.07;26.45;;;-1.40;57.20;;;;;;7362928;19;20334;-68
2023/02/15 08:01:27;;;;;;;119.03;25.88;;;-1.40;56.70;;;;;;7364571;19;20166;-69
2023/02/15 08:03:57;;;;;;;74.10;23.85;;;-1.30;56.80;;;;;;7365693;19;20082;-68
2023/02/15 08:06:29;;;;;;;145.70;26.52;;;-1.30;56.80;;;;;;7365794;19;20010;-68
2023/02/15 08:09:00;;;;;;;60.47;22.50;;;-1.20;56.90;;;;;;7362557;19;20079;-68
2023/02/15 08:11:41;;;;;;;68.82;22.65;;;-1.10;57.00;;;;;;7363332;19;20021;-69
2023/02/15 08:14:14;;;;;;;101.25;25.52;;;-1.30;56.60;;;;;;7385488;19;20019;-69
2023/02/15 08:16:46;;;;;;;70.22;22.77;;;-1.20;56.80;;;;;;7364088;19;20018;-67
2023/02/15 08:19:18;;;;;;;105.10;25.35;;;-1.30;56.60;;;;;;7363981;19;20011;-70
2023/02/15 08:21:52;;;;;;;106.75;25.55;;;-1.10;57.60;;;;;;7361723;19;20014;-69
2023/02/15 08:24:24;;;;;;;99.38;25.27;;;-1.00;57.10;;;;;;7362415;19;20028;-68
2023/02/15 08:26:56;;;;;;;115.97;26.45;;;-1.10;57.00;;;;;;7364945;19;20015;-68
2023/02/15 08:29:29;;;;;;;43.67;22.38;;;-1.10;57.00;;;;;;7363899;19;20094;-68
2023/02/15 08:32:01;;;;;;;55.05;24.70;;;-1.10;57.00;;;;;;7384274;19;20015;-68
2023/02/15 08:34:33;;;;;;;43.58;22.65;;;-1.10;56.40;;;;;;7362091;19;20017;-68
2023/02/15 08:37:05;;;;;;;44.75;21.35;;;-1.00;56.70;;;;;;7364305;19;20050;-66
2023/02/15 08:39:36;;;;;;;40.50;20.85;;;-1.30;52.90;;;;;;7362296;19;20490;-68
2023/02/15 08:42:09;;;;;;;47.90;21.33;;;-1.20;54.40;;;;;;7363349;19;20010;-68
2023/02/15 08:44:39;;;;;;;49.28;22.10;;;-1.10;54.40;;;;;;7361968;19;20018;-68
2023/02/15 08:47:09;;;;;;;38.38;20.63;;;-0.90;54.50;;;;;;7386180;19;20107;-69
2023/02/15 08:49:38;;;;;;;37.38;21.98;;;-0.80;54.40;;;;;;7362667;19;20510;-68
2023/02/15 08:52:08;;;;;;;65.68;22.00;;;-0.60;54.90;;;;;;7362401;19;20066;-67
2023/02/15 08:54:38;;;;;;;51.15;20.83;;;-0.70;54.80;;;;;;7363890;19;20021;-68
2023/02/15 08:57:10;;;;;;;42.33;19.13;;;-1.00;54.30;;;;;;7362813;19;20484;-67
2023/02/15 08:59:40;;;;;;;35.85;19.45;;;-0.70;55.10;;;;;;7361055;19;20022;-68
2023/02/15 09:02:12;;;;;;;35.97;19.77;;;-0.80;52.00;;;;;;7387806;19;20090;-67
2023/02/15 09:04:42;;;;;;;73.28;22.50;;;-0.50;54.20;;;;;;7361431;19;20396;-66
2023/02/15 09:07:12;;;;;;;57.72;22.10;;;-0.40;54.80;;;;;;7363492;19;20042;-68
2023/02/15 09:09:42;;;;;;;50.05;22.25;;;-0.60;54.60;;;;;;7362905;19;20312;-69
2023/02/15 09:12:14;;;;;;;45.53;20.20;;;-0.60;52.40;;;;;;7361309;19;20018;-68
2023/02/15 09:14:44;;;;;;;64.80;22.75;;;-0.40;53.70;;;;;;7361176;19;20620;-68
2023/02/15 09:17:14;;;;;;;43.22;20.77;;;-0.40;51.90;;;;;;7385255;19;20018;-67
2023/02/15 09:19:44;;;;;;;45.28;19.60;;;-0.20;51.40;;;;;;7362574;19;20015;-68
2023/02/15 09:22:14;;;;;;;39.33;20.42;;;-0.20;47.90;;;;;;7360782;19;20477;-67
2023/02/15 09:24:44;;;;;;;41.38;22.92;;;0.00;49.90;;;;;;7360456;19;20014;-68
2023/02/15 09:27:16;;;;;;;38.83;21.60;;;0.00;50.00;;;;;;7361333;19;20502;-68
2023/02/15 09:29:46;;;;;;;42.90;22.65;;;0.20;50.40;;;;;;7362028;19;20010;-68
2023/02/15 09:32:17;;;;;;;41.95;22.02;;;0.20;49.20;;;;;;7382162;19;20014;-68
2023/02/15 09:34:47;;;;;;;40.28;21.27;;;0.30;47.50;;;;;;7360769;19;20021;-68
2023/02/15 09:37:17;;;;;;;48.10;23.27;;;0.50;44.60;;;;;;7361695;19;20014;-67
2023/02/15 09:39:47;;;;;;;37.17;20.77;;;0.60;44.10;;;;;;7360147;19;20017;-68
2023/02/15 09:42:46;;;;;;;38.70;20.63;;;0.40;36.70;;;;;;7360507;19;20014;-67
2023/02/15 09:45:39;;;;;;;37.50;20.40;;;1.00;42.90;;;;;;7360043;19;20414;-68
2023/02/15 09:48:38;;;;;;;39.25;21.48;;;1.10;37.60;;;;;;7362134;19;20010;-68
2023/02/15 09:51:41;;;;;;;42.45;21.02;;;1.20;33.90;;;;;;7360649;19;20562;-68
2023/02/15 09:54:35;;;;;;;38.70;20.67;;;1.20;28.10;;;;;;7360655;19;20085;-69
2023/02/15 09:57:12;;;;;;;38.72;20.88;;;1.30;29.30;;;;;;7362215;19;20019;-69
2023/02/15 09:59:53;;;;;;;42.53;21.95;;;1.40;27.50;;;;;;7362019;19;20140;-68
2023/02/15 10:02:38;;;;;;;38.78;22.20;;;1.50;26.80;;;;;;7363693;19;20094;-69
2023/02/15 10:05:18;;;;;;;36.83;20.77;;;1.30;22.20;;;;;;7384088;19;20606;-68
2023/02/15 10:08:27;;;;;;;39.78;21.20;;;1.40;27.20;;;;;;7361675;19;20007;-68
2023/02/15 10:11:38;;;;;;;39.30;22.08;;;1.10;23.50;;;;;;7359188;19;20018;-68
2023/02/15 10:14:04;;;;;;;43.50;22.92;;;1.00;25.90;;;;;;7358694;19;20070;-68
2023/02/15 10:16:46;;;;;;;39.97;22.48;;;1.10;26.80;;;;;;7360563;19;20085;-67
2023/02/15 10:19:27;;;;;;;48.45;23.30;;;1.40;28.10;;;;;;7362362;19;20015;-68
2023/02/15 10:22:07;;;;;;;41.10;23.10;;;1.20;26.20;;;;;;7364489;19;20474;-68
2023/02/15 10:25:11;;;;;;;43.17;23.73;;;1.70;28.70;;;;;;7361992;19;20018;-69
2023/02/15 10:27:48;;;;;;;41.20;22.73;;;1.80;24.40;;;;;;7360820;19;21243;-67
2023/02/15 10:30:18;;;;;;;44.72;23.05;;;1.70;21.80;;;;;;7359627;19;20014;-68
2023/02/15 10:33:01;;;;;;;39.00;23.15;;;1.90;24.40;;;;;;7362440;19;20363;-68
2023/02/15 10:35:40;;;;;;;41.83;23.23;;;2.10;22.30;;;;;;7359756;19;20421;-68
2023/02/15 10:38:24;;;;;;;42.33;23.08;;;2.20;21.00;;;;;;7385243;19;20014;-69
2023/02/15 10:41:06;;;;;;;41.83;22.85;;;2.40;20.10;;;;;;7362202;19;20011;-68
2023/02/15 10:43:48;;;;;;;43.65;23.85;;;2.50;18.00;;;;;;7360543;19;20010;-68
2023/02/15 10:46:29;;;;;;;41.40;22.67;;;2.70;16.90;;;;;;7360301;19;20046;-67
2023/02/15 10:49:18;;;;;;;41.08;22.58;;;2.80;15.70;;;;;;7361337;19;20010;-68
2023/02/15 10:52:00;;;;;;;41.75;22.58;;;2.70;17.20;;;;;;7362198;19;20082;-68
2023/02/15 10:54:38;;;;;;;40.38;22.50;;;2.90;17.50;;;;;;7362584;19;20014;-68
2023/02/15 10:57:20;;;;;;;36.33;21.67;;;2.80;17.20;;;;;;7359431;19;20003;-67
2023/02/15 11:00:02;;;;;;;36.35;21.95;;;2.80;18.10;;;;;;7363329;19;20014;-67
2023/02/15 11:02:44;;;;;;;43.05;22.50;;;2.60;20.40;;;;;;7370786;19;20018;-68
2023/02/15 11:05:29;;;;;;;41.05;23.20;;;2.60;20.50;;;;;;7388106;19;20022;-69
2023/02/15 11:08:02;;;;;;;45.20;23.17;;;2.50;21.20;;;;;;7368591;19;20022;-67
2023/02/15 11:10:37;;;;;;;45.17;23.38;;;2.60;21.10;;;;;;7366631;19;20018;-69
2023/02/15 11:13:12;;;;;;;41.03;23.83;;;2.40;19.30;;;;;;7366116;19;20010;-68
2023/02/15 11:15:47;;;;;;;48.28;25.75;;;2.50;22.00;;;;;;7367461;19;20019;-68
2023/02/15 11:18:24;;;;;;;44.35;24.33;;;2.40;19.70;;;;;;7370084;19;20016;-67
2023/02/15 11:21:02;;;;;;;44.17;24.00;;;2.20;21.40;;;;;;7366361;19;20017;-67
2023/02/15 11:23:36;;;;;;;47.65;24.98;;;2.50;24.80;;;;;;7367106;19;20011;-67
2023/02/15 11:26:14;;;;;;;43.10;23.63;;;2.40;20.60;;;;;;7387862;19;20050;-68
2023/02/15 11:28:49;;;;;;;42.75;24.70;;;2.70;21.00;;;;;;7367750;19;20014;-67
2023/02/15 11:31:22;;;;;;;42.47;23.20;;;2.70;20.60;;;;;;7365802;19;20018;-67
2023/02/15 11:33:56;;;;;;;44.95;24.30;;;2.70;20.30;;;;;;7366582;19;20017;-68
2023/02/15 11:36:34;;;;;;;49.60;26.45;;;2.80;21.10;;;;;;7366912;19;20006;-67
2023/02/15 11:39:11;;;;;;;43.40;24.38;;;3.00;18.60;;;;;;7367324;19;20015;-66
2023/02/15 11:41:49;;;;;;;44.10;24.17;;;2.90;19.50;;;;;;7367413;19;20027;-68
2023/02/15 11:44:25;;;;;;;46.00;23.85;;;2.80;21.50;;;;;;7388024;19;20014;-68
2023/02/15 11:46:55;;;;;;;44.90;26.13;;;3.00;20.20;;;;;;7364224;19;20027;-68
2023/02/15 11:49:29;;;;;;;55.38;24.85;;;3.10;19.10;;;;;;7366239;19;20034;-65
2023/02/15 11:52:04;;;;;;;41.60;23.60;;;3.10;19.20;;;;;;7368089;19;20109;-67
2023/02/15 11:54:38;;;;;;;45.45;23.80;;;3.00;17.40;;;;;;7367967;19;20021;-67
2023/02/15 11:57:17;;;;;;;51.47;25.40;;;3.10;21.30;;;;;;7365098;19;20011;-66
2023/02/15 11:59:53;;;;;;;43.38;24.42;;;3.20;20.10;;;;;;7367386;19;20024;-67
2023/02/15 12:02:27;;;;;;;39.17;23.48;;;3.10;18.90;;;;;;7366482;19;20762;-67
2023/02/15 12:05:00;;;;;;;42.03;24.95;;;3.10;18.50;;;;;;7386621;19;20015;-66
2023/02/15 12:07:38;;;;;;;42.42;23.92;;;3.30;17.20;;;;;;7365298;19;20552;-67
2023/02/15 12:10:20;;;;;;;41.97;22.80;;;3.30;16.40;;;;;;7365669;19;20011;-67
2023/02/15 12:13:11;;;;;;;40.17;24.50;;;3.50;14.10;;;;;;7365159;19;20010;-68
2023/02/15 12:15:46;;;;;;;40.33;24.17;;;3.60;13.30;;;;;;7365687;19;20015;-68
2023/02/15 12:18:28;;;;;;;40.85;24.27;;;3.70;13.60;;;;;;7367294;19;20081;-68
2023/02/15 12:21:03;;;;;;;43.75;24.05;;;3.80;11.60;;;;;;7362780;19;20027;-67
2023/02/15 12:23:36;;;;;;;;;;;3.90;11.90;;;;;;7367945;19;20018;-67
2023/02/15 12:26:06;;;;;;;39.78;23.42;;;4.00;11.20;;;;;;7384567;19;19922;-67
2023/02/15 12:28:38;;;;;;;39.58;22.55;;;4.10;10.10;;;;;;7368155;19;20014;-67
2023/02/15 12:31:21;;;;;;;40.63;22.60;;;4.00;8.30;;;;;;7364794;19;20015;-67
2023/02/15 12:33:54;;;;;;;38.33;22.25;;;4.00;9.10;;;;;;7365121;19;20018;-69
2023/02/15 12:36:27;;;;;;;34.95;22.80;;;4.00;8.40;;;;;;7364892;19;20017;-68
2023/02/15 12:39:19;;;;;;;40.50;23.73;;;4.30;8.70;;;;;;7365338;19;20015;-68
2023/02/15 12:42:01;;;;;;;39.65;23.55;;;4.30;7.30;;;;;;7363515;19;20019;-68
2023/02/15 12:44:32;;;;;;;32.72;21.00;;;4.50;5.80;;;;;;7365843;19;20011;-66
2023/02/15 12:47:06;;;;;;;34.28;22.08;;;4.60;5.60;;;;;;7389068;19;20101;-67
2023/02/15 12:49:37;;;;;;;37.83;22.20;;;4.70;5.10;;;;;;7364290;19;20038;-69
2023/02/15 12:52:09;;;;;;;36.95;21.92;;;4.80;3.60;;;;;;7360116;19;20044;-67
2023/02/15 12:54:43;;;;;;;38.28;22.25;;;4.70;3.80;;;;;;7365981;19;20017;-68
2023/02/15 12:57:31;;;;;;;;;;;4.80;3.70;;;;;;7362793;19;20022;-67
2023/02/15 13:00:03;;;;;;;34.53;21.70;;;5.00;2.60;;;;;;7362109;19;19929;-69
2023/02/15 13:02:38;;;;;;;37.30;22.27;;;5.10;1.70;;;;;;7365646;19;20079;-68
2023/02/15 13:05:20;;;;;;;37.40;21.10;;;5.10;1.60;;;;;;7383236;19;20502;-68
2023/02/15 13:07:54;;;;;;;36.63;22.10;;;5.30;1.80;;;;;;7361104;19;20003;-67
2023/02/15 13:10:30;;;;;;;36.08;22.33;;;5.30;1.30;;;;;;7358774;19;20466;-68
2023/02/15 13:13:02;;;;;;;35.75;22.65;;;5.40;1.40;;;;;;7359681;19;20010;-67
2023/02/15 13:15:40;;;;;;;37.42;23.20;;;5.60;1.00;;;;;;7359577;19;20085;-66
2023/02/15 13:18:18;;;;;;;33.45;21.48;;;5.70;1.00;;;;;;7361057;19;20017;-67
2023/02/15 13:20:50;;;;;;;33.95;20.67;;;5.80;1.00;;;;;;7361913;19;20022;-67
2023/02/15 13:23:29;;;;;;;32.10;21.90;;;5.80;1.00;;;;;;7377907;19;20024;-67
2023/02/15 13:26:05;;;;;;;33.17;21.42;;;5.80;1.00;;;;;;7363084;19;20011;-68
2023/02/15 13:28:42;;;;;;;34.08;21.42;;;5.70;1.00;;;;;;7365793;19;20014;-68